Time;durP1;ratioP1;P1;durP2;ratioP2;P2;SDS_P1;SDS_P2;PMS_P1;PMS_P2;Temp;Humidity;BMP_temperature;BMP_pressure;BME280_temperature;BME280_humidity;BME280_pressure;Samples;Min_cycle;Max_cycle;Signal;HPM_P1;HPM_P2
2022/03/23 00:00:10;;;;;;;;;;;;;;;4.77;43.97;99832.73;1684978;85;26049;-84
2022/03/23 00:02:38;;;;;;;;;;;;;;;4.77;44.04;99830.58;1701067;84;20461;-85
2022/03/23 00:05:04;;;;;;;;;;;;;;;4.72;44.14;99828.09;1720291;82;20629;-85
2022/03/23 00:07:30;;;;;;;;;;;;;;;4.74;44.24;99829.37;1692148;84;24789;-84
2022/03/23 00:10:14;;;;;;;;;;;;;;;4.84;44.35;99825.66;1672006;84;21950;-84
2022/03/23 00:12:42;;;;;;;;;;;;;;;4.89;44.45;99825.09;1687569;84;21030;-84
2022/03/23 00:15:08;;;;;;;;;;;;;;;4.84;44.52;99821.33;1689296;84;25217;-85
2022/03/23 00:17:34;;;;;;;;;;;;;;;4.77;44.59;99827.98;1732372;82;20475;-84
2022/03/23 00:20:00;;;;;;;;;;;;;;;4.71;44.63;99827.69;1705322;82;24678;-84
2022/03/23 00:22:27;;;;;;;;;;;;;;;4.69;44.74;99815.19;1734928;81;22081;-85
2022/03/23 00:24:56;;;;;;;;;;;;;;;4.65;44.82;99820.05;1732955;82;26023;-84
2022/03/23 00:27:24;;;;;;;;;;;;;;;4.60;44.88;99814.98;1734756;82;24689;-83
2022/03/23 00:29:50;;;;;;;;;;;;;;;4.57;45.00;99818.95;1733936;82;20494;-84
2022/03/23 00:32:16;;;;;;;;;;;;;;;4.52;45.08;99815.63;1734421;82;24743;-84
2022/03/23 00:34:42;;;;;;;;;;;;;;;4.55;45.17;99807.75;1733157;82;20759;-85
2022/03/23 00:37:08;;;;;;;;;;;;;;;4.55;45.27;99805.16;1732000;82;22589;-84
2022/03/23 00:39:34;;;;;;;;;;;;;;;4.56;45.35;99802.13;1733445;82;20305;-85
2022/03/23 00:42:00;;;;;;;;;;;;;;;4.60;45.45;99799.42;1732908;82;20648;-84
2022/03/23 00:44:26;;;;;;;;;;;;;;;4.66;45.53;99791.09;1734107;82;24808;-85
2022/03/23 00:46:52;;;;;;;;;;;;;;;4.65;45.60;99785.05;1733723;82;21962;-84
2022/03/23 00:49:18;;;;;;;;;;;;;;;4.60;45.66;99784.31;1680160;85;26099;-85
2022/03/23 00:51:45;;;;;;;;;;;;;;;4.65;45.75;99779.86;1699233;84;24486;-85
2022/03/23 00:54:11;;;;;;;;;;;;;;;4.55;45.84;99781.83;1693787;83;20287;-84
2022/03/23 00:56:39;;;;;;;;;;;;;;;4.44;45.88;99781.67;1718348;82;24823;-84
2022/03/23 00:59:07;;;;;;;;;;;;;;;4.35;45.93;99785.78;1732166;80;22012;-85
2022/03/23 01:01:32;;;;;;;;;;;;;;;4.30;46.02;99780.72;1741622;80;26605;-84
2022/03/23 01:03:58;;;;;;;;;;;;;;;4.27;46.13;99778.62;1729124;80;20849;-84
2022/03/23 01:06:24;;;;;;;;;;;;;;;4.23;46.20;99782.17;1739470;80;20793;-84
2022/03/23 01:08:51;;;;;;;;;;;;;;;4.14;46.33;99781.95;1717046;82;20727;-84
2022/03/23 01:11:17;;;;;;;;;;;;;;;4.13;46.42;99778.95;1708317;82;22012;-84
2022/03/23 01:13:42;;;;;;;;;;;;;;;4.14;46.53;99776.77;1720594;82;20722;-84
2022/03/23 01:16:10;;;;;;;;;;;;;;;4.14;46.62;99775.47;1708847;82;20838;-84
2022/03/23 01:18:36;;;;;;;;;;;;;;;4.02;46.70;99775.30;1726098;80;20317;-84
2022/03/23 01:21:02;;;;;;;;;;;;;;;3.98;46.80;99777.52;1724575;81;20753;-84
2022/03/23 01:23:28;;;;;;;;;;;;;;;4.00;46.90;99774.91;1734258;80;22048;-84
2022/03/23 01:25:54;;;;;;;;;;;;;;;3.91;46.98;99780.30;1734146;80;26567;-85
2022/03/23 01:28:21;;;;;;;;;;;;;;;3.79;47.05;99772.34;1714158;81;20301;-85
2022/03/23 01:30:47;;;;;;;;;;;;;;;3.60;47.11;99774.45;1722753;82;20377;-85
2022/03/23 01:33:13;;;;;;;;;;;;;;;3.42;47.20;99773.54;1717201;82;24629;-85
2022/03/23 01:35:39;;;;;;;;;;;;;;;3.20;47.27;99767.07;1721354;82;22190;-85
2022/03/23 01:38:05;;;;;;;;;;;;;;;3.02;47.36;99764.37;1722083;82;20952;-85
2022/03/23 01:40:31;;;;;;;;;;;;;;;2.92;47.48;99761.11;1705071;82;24419;-85
2022/03/23 01:42:57;;;;;;;;;;;;;;;2.87;47.62;99760.34;1719839;82;20268;-85
2022/03/23 01:45:23;;;;;;;;;;;;;;;2.86;47.75;99761.65;1706730;82;20286;-85
2022/03/23 01:47:49;;;;;;;;;;;;;;;2.85;47.89;99753.04;1718439;82;20255;-85
2022/03/23 01:50:15;;;;;;;;;;;;;;;2.84;48.03;99750.03;1720905;83;21018;-85
2022/03/23 01:52:41;;;;;;;;;;;;;;;2.87;48.17;99746.12;1719716;83;20841;-85
2022/03/23 01:55:09;;;;;;;;;;;;;;;3.05;48.35;99749.26;1726835;82;20254;-85
2022/03/23 01:57:37;;;;;;;;;;;;;;;3.16;48.47;99749.91;1697733;83;24819;-85
2022/03/23 02:00:05;;;;;;;;;;;;;;;3.22;48.57;99753.65;1728508;82;22718;-85
2022/03/23 02:02:31;;;;;;;;;;;;;;;3.19;48.61;99750.70;1735044;82;26056;-85
2022/03/23 02:04:57;;;;;;;;;;;;;;;3.21;48.72;99753.27;1734127;82;24470;-85
2022/03/23 02:07:24;;;;;;;;;;;;;;;3.19;48.77;99746.81;1731773;82;20424;-85
2022/03/23 02:09:50;;;;;;;;;;;;;;;3.32;48.92;99747.00;1695533;82;24879;-85
2022/03/23 02:12:16;;;;;;;;;;;;;;;3.44;49.02;99740.70;1733220;82;22196;-85
2022/03/23 02:14:42;;;;;;;;;;;;;;;3.55;49.11;99745.22;1734877;82;21036;-84
2022/03/23 02:17:08;;;;;;;;;;;;;;;3.59;49.19;99734.38;1733433;82;20896;-84
2022/03/23 02:19:35;;;;;;;;;;;;;;;3.57;49.26;99733.11;1734288;82;20459;-84
2022/03/23 02:22:01;;;;;;;;;;;;;;;3.58;49.31;99738.70;1731883;82;25004;-84
2022/03/23 02:24:28;;;;;;;;;;;;;;;3.64;49.41;99736.43;1732729;82;21980;-84
2022/03/23 02:26:55;;;;;;;;;;;;;;;3.56;49.43;99736.58;1711478;82;26122;-85
2022/03/23 02:29:22;;;;;;;;;;;;;;;3.56;49.51;99735.28;1732307;82;24495;-84
2022/03/23 02:31:48;;;;;;;;;;;;;;;3.55;49.57;99737.45;1731654;82;20535;-84
2022/03/23 02:34:14;;;;;;;;;;;;;;;3.38;49.61;99737.41;1731027;82;24727;-84
2022/03/23 02:36:40;;;;;;;;;;;;;;;3.16;49.62;99741.72;1715328;82;22037;-84
2022/03/23 02:39:06;;;;;;;;;;;;;;;3.08;49.66;99736.26;1736269;82;26017;-83
2022/03/23 02:41:33;;;;;;;;;;;;;;;3.08;49.75;99733.23;1728552;82;24499;-84
2022/03/23 02:44:00;;;;;;;;;;;;;;;3.05;49.83;99733.74;1710001;82;20204;-84
2022/03/23 02:46:33;;;;;;;;;;;;;;;3.05;49.94;99733.74;1714759;82;24876;-84
2022/03/23 02:48:56;;;;;;;;;;;;;;;3.03;50.04;99731.17;1735120;82;21873;-84
2022/03/23 02:51:22;;;;;;;;;;;;;;;3.09;50.15;99734.09;1730028;82;21001;-85
2022/03/23 03:02:22;;;;;;;;;;;;;;;3.32;50.61;99738.39;1733568;82;22001;-85
2022/03/23 03:04:48;;;;;;;;;;;;;;;3.29;50.68;99737.13;1733030;82;26089;-85
2022/03/23 03:07:15;;;;;;;;;;;;;;;3.14;50.66;99736.14;1732514;82;24098;-85
2022/03/23 03:09:42;;;;;;;;;;;;;;;3.08;50.72;99737.55;1733021;82;20224;-85
2022/03/23 03:12:08;;;;;;;;;;;;;;;2.83;50.69;99733.28;1732719;82;24754;-85
2022/03/23 03:14:34;;;;;;;;;;;;;;;2.59;50.67;99733.26;1712507;82;21972;-85
2022/03/23 03:17:00;;;;;;;;;;;;;;;2.44;50.74;99730.50;1732321;82;26029;-85
2022/03/23 03:19:26;;;;;;;;;;;;;;;2.40;50.82;99728.00;1733739;82;20333;-85
2022/03/23 03:21:53;;;;;;;;;;;;;;;2.35;50.94;99725.90;1733625;82;20325;-85
2022/03/23 03:24:20;;;;;;;;;;;;;;;2.30;51.07;99726.41;1732910;82;24833;-85
2022/03/23 03:26:46;;;;;;;;;;;;;;;2.21;51.16;99726.56;1733575;81;20302;-85
2022/03/23 03:29:12;;;;;;;;;;;;;;;2.23;51.32;99724.39;1733289;82;25951;-84
2022/03/23 03:31:38;;;;;;;;;;;;;;;2.39;51.50;99725.00;1733698;82;20259;-85
2022/03/23 03:34:04;;;;;;;;;;;;;;;2.53;51.69;99721.30;1732995;82;20243;-84
2022/03/23 03:36:30;;;;;;;;;;;;;;;2.60;51.81;99721.19;1733027;82;20250;-84
2022/03/23 03:38:56;;;;;;;;;;;;;;;2.55;51.89;99721.28;1731587;82;20216;-84
2022/03/23 03:41:22;;;;;;;;;;;;;;;2.69;52.04;99719.30;1732103;82;25958;-84
2022/03/23 03:43:49;;;;;;;;;;;;;;;2.87;52.19;99724.58;1732238;82;24484;-84
2022/03/23 03:46:15;;;;;;;;;;;;;;;2.93;52.32;99716.28;1732273;81;20569;-85
2022/03/23 03:48:43;;;;;;;;;;;;;;;2.99;52.39;99720.92;1732562;82;24724;-85
2022/03/23 03:51:10;;;;;;;;;;;;;;;2.93;52.44;99719.30;1734426;82;22100;-84
2022/03/23 03:53:36;;;;;;;;;;;;;;;2.81;52.45;99723.40;1713703;82;26005;-84
2022/03/23 03:56:02;;;;;;;;;;;;;;;2.70;52.49;99725.32;1768184;79;20248;-85
2022/03/23 03:58:29;;;;;;;;;;;;;;;2.61;52.54;99727.64;1760520;81;20244;-84
2022/03/23 04:00:55;;;;;;;;;;;;;;;2.55;52.59;99725.16;1744849;80;24768;-84
2022/03/23 04:03:21;;;;;;;;;;;;;;;2.57;52.68;99721.23;1777922;80;22093;-84
2022/03/23 04:05:47;;;;;;;;;;;;;;;2.61;52.77;99722.47;1766839;81;26674;-84
2022/03/23 04:08:14;;;;;;;;;;;;;;;2.65;52.88;99717.66;1748506;80;24498;-84
2022/03/23 04:10:39;;;;;;;;;;;;;;;2.63;52.94;99722.42;1762046;81;20416;-84
2022/03/23 04:13:08;;;;;;;;;;;;;;;2.69;53.05;99719.30;1761013;81;24733;-84
2022/03/23 04:15:35;;;;;;;;;;;;;;;2.84;53.17;99720.30;1767373;81;22068;-84
2022/03/23 04:18:01;;;;;;;;;;;;;;;2.82;53.21;99716.06;1767061;80;25966;-85
2022/03/23 04:20:28;;;;;;;;;;;;;;;2.91;53.25;99715.88;1761296;81;20877;-84
2022/03/23 04:22:53;;;;;;;;;;;;;;;3.03;53.37;99720.83;1764359;80;20433;-85
2022/03/23 04:25:19;;;;;;;;;;;;;;;3.11;53.44;99718.94;1765271;81;20208;-85
2022/03/23 04:27:46;;;;;;;;;;;;;;;3.19;53.49;99722.68;1768173;81;20228;-85
2022/03/23 04:30:13;;;;;;;;;;;;;;;3.24;53.53;99720.86;1764358;81;25946;-85
2022/03/23 04:32:39;;;;;;;;;;;;;;;3.30;53.56;99716.86;1739342;81;25199;-85
2022/03/23 04:35:05;;;;;;;;;;;;;;;3.31;53.57;99713.39;1758602;81;20203;-85
2022/03/23 04:37:31;;;;;;;;;;;;;;;3.23;53.51;99721.73;1764507;81;24753;-86
2022/03/23 04:39:57;;;;;;;;;;;;;;;3.05;53.45;99716.94;1764232;81;22712;-86
2022/03/23 04:42:23;;;;;;;;;;;;;;;2.93;53.42;99709.82;1763081;81;26626;-84
2022/03/23 04:44:49;;;;;;;;;;;;;;;2.86;53.42;99706.92;1769307;81;24590;-84
2022/03/23 04:47:16;;;;;;;;;;;;;;;2.96;53.51;99702.42;1760123;81;20535;-84
2022/03/23 04:49:42;;;;;;;;;;;;;;;3.16;53.65;99699.48;1765381;81;24827;-84
2022/03/23 04:52:09;;;;;;;;;;;;;;;3.17;53.67;99707.19;1762159;81;21960;-85
2022/03/23 04:54:35;;;;;;;;;;;;;;;3.10;53.62;99705.63;1726849;81;26037;-86
2022/03/23 04:57:01;;;;;;;;;;;;;;;3.14;53.67;99707.70;1756164;80;20878;-85
2022/03/23 04:59:27;;;;;;;;;;;;;;;3.04;53.65;99711.34;1766059;80;20874;-86
2022/03/23 05:01:53;;;;;;;;;;;;;;;2.89;53.62;99712.50;1761049;81;24768;-86
2022/03/23 05:04:19;;;;;;;;;;;;;;;2.77;53.60;99714.86;1768827;81;20221;-85
2022/03/23 05:06:45;;;;;;;;;;;;;;;2.71;53.66;99717.98;1766739;81;20911;-85
2022/03/23 05:09:11;;;;;;;;;;;;;;;2.53;53.65;99729.48;1768235;81;24507;-85
2022/03/23 05:11:37;;;;;;;;;;;;;;;2.35;53.65;99729.34;1762967;81;20803;-85
2022/03/23 05:14:03;;;;;;;;;;;;;;;2.47;53.79;99741.20;1760057;81;20221;-85
2022/03/23 05:16:29;;;;;;;;;;;;;;;2.60;53.95;99740.58;1768902;81;20317;-85
2022/03/23 05:18:57;;;;;;;;;;;;;;;2.69;54.09;99736.09;1767062;81;25923;-84
2022/03/23 05:21:23;;;;;;;;;;;;;;;2.63;54.16;99733.61;1762564;81;24518;-85
2022/03/23 05:23:54;;;;;;;;;;;;;;;2.67;54.28;99730.12;1763888;80;20307;-84
2022/03/23 05:26:20;;;;;;;;;;;;;;;2.60;54.36;99729.80;1765276;81;24798;-84
2022/03/23 05:28:46;;;;;;;;;;;;;;;2.62;54.47;99722.86;1768490;80;22005;-85
2022/03/23 05:31:12;;;;;;;;;;;;;;;2.71;54.60;99723.16;1766239;81;25976;-86
2022/03/23 05:33:38;;;;;;;;;;;;;;;2.84;54.75;99723.33;1765204;81;24522;-85
2022/03/23 05:36:04;;;;;;;;;;;;;;;3.02;54.94;99723.44;1729684;81;20730;-85
2022/03/23 05:38:30;;;;;;;;;;;;;;;3.10;55.06;99718.55;1762714;81;24943;-85
2022/03/23 05:40:56;;;;;;;;;;;;;;;3.16;55.13;99711.97;1764404;81;22050;-85
2022/03/23 05:43:22;;;;;;;;;;;;;;;3.24;55.25;99713.09;1764178;80;26057;-85
2022/03/23 05:45:48;;;;;;;;;;;;;;;3.34;55.36;99714.17;1757706;81;20444;-85
2022/03/23 05:48:14;;;;;;;;;;;;;;;3.43;55.43;99714.88;1746830;81;20166;-85
2022/03/23 05:50:40;;;;;;;;;;;;;;;3.56;55.49;99717.16;1768344;81;20310;-85
2022/03/23 05:53:08;;;;;;;;;;;;;;;3.65;55.56;99710.52;1762103;81;20937;-85
2022/03/23 05:55:34;;;;;;;;;;;;;;;3.72;55.63;99718.98;1764185;79;26055;-85
2022/03/23 05:58:00;;;;;;;;;;;;;;;3.79;55.71;99716.67;1771721;79;24301;-85
2022/03/23 06:00:26;;;;;;;;;;;;;;;3.84;55.74;99719.16;1773920;79;20303;-85
2022/03/23 06:02:52;;;;;;;;;;;;;;;3.95;55.81;99714.16;1758845;79;24896;-85
2022/03/23 06:05:18;;;;;;;;;;;;;;;4.02;55.86;99713.14;1775947;80;20437;-85
2022/03/23 06:07:45;;;;;;;;;;;;;;;4.06;55.95;99710.02;1775787;80;26003;-85
2022/03/23 06:10:12;;;;;;;;;;;;;;;4.08;56.07;99696.61;1777014;79;24538;-85
2022/03/23 06:12:38;;;;;;;;;;;;;;;4.30;56.24;99706.02;1775341;80;20167;-85
2022/03/23 06:15:08;;;;;;;;;;;;;;;4.37;56.31;99712.73;1745387;80;20242;-86
2022/03/23 06:17:35;;;;;;;;;;;;;;;4.47;56.37;99709.05;1774689;80;22052;-85
2022/03/23 06:20:02;;;;;;;;;;;;;;;4.61;56.49;99699.17;1780655;80;25952;-85
2022/03/23 06:22:29;;;;;;;;;;;;;;;4.75;56.62;99697.05;1776771;80;25401;-85
2022/03/23 06:24:55;;;;;;;;;;;;;;;4.88;56.69;99698.89;1781528;80;20503;-85
2022/03/23 06:27:21;;;;;;;;;;;;;;;4.94;56.67;99702.63;1778774;80;24755;-85
2022/03/23 06:29:47;;;;;;;;;;;;;;;4.97;56.68;99709.02;1771523;80;20733;-85
2022/03/23 06:32:14;;;;;;;;;;;;;;;5.00;56.69;99712.84;1779864;80;21007;-85
2022/03/23 06:34:40;;;;;;;;;;;;;;;4.98;56.66;99715.47;1776244;80;25309;-85
2022/03/23 06:37:08;;;;;;;;;;;;;;;5.00;56.70;99716.73;1771266;80;20324;-85
2022/03/23 06:39:35;;;;;;;;;;;;;;;5.02;56.76;99717.52;1773780;80;25483;-84
2022/03/23 06:42:01;;;;;;;;;;;;;;;4.97;56.88;99721.98;1776517;80;22142;-86
2022/03/23 06:44:27;;;;;;;;;;;;;;;4.95;57.02;99725.08;1773482;80;21115;-83
2022/03/23 06:46:53;;;;;;;;;;;;;;;5.05;57.22;99729.13;1767465;80;20273;-84
2022/03/23 06:49:19;;;;;;;;;;;;;;;5.18;57.44;99725.33;1777585;80;20869;-85
2022/03/23 06:51:45;;;;;;;;;;;;;;;5.30;57.63;99721.52;1782744;80;24808;-84
2022/03/23 06:54:11;;;;;;;;;;;;;;;5.48;57.86;99726.19;1779522;80;20794;-84
2022/03/23 06:56:37;;;;;;;;;;;;;;;5.70;58.15;99727.27;1773845;79;25983;-85
2022/03/23 06:59:06;;;;;;;;;;;;;;;5.89;58.44;99724.55;1772749;79;20325;-84
2022/03/23 07:01:32;;;;;;;;;;;;;;;6.00;58.61;99724.22;1776195;79;20325;-84
2022/03/23 07:03:58;;;;;;;;;;;;;;;6.09;58.73;99717.46;1775050;79;20262;-85
2022/03/23 07:06:24;;;;;;;;;;;;;;;6.18;58.83;99717.16;1773276;79;20358;-85
2022/03/23 07:11:34;;;;;;;;;;;;;;;6.37;59.23;99711.38;1767449;79;24488;-85
2022/03/23 07:14:00;;;;;;;;;;;;;;;6.51;59.48;99715.23;1779123;79;20178;-86
2022/03/23 07:16:31;;;;;;;;;;;;;;;6.69;59.71;99707.27;1755459;79;20777;-85
2022/03/23 07:18:57;;;;;;;;;;;;;;;6.83;59.83;99711.54;1780871;79;21968;-85
2022/03/23 07:21:23;;;;;;;;;;;;;;;6.84;59.88;99713.69;1771716;79;21100;-85
2022/03/23 07:23:49;;;;;;;;;;;;;;;6.85;60.03;99714.09;1770919;79;20869;-85
2022/03/23 07:26:16;;;;;;;;;;;;;;;6.88;60.17;99712.23;1778946;79;20852;-85
2022/03/23 07:28:42;;;;;;;;;;;;;;;6.97;60.29;99712.37;1777447;79;25537;-85
2022/03/23 07:31:08;;;;;;;;;;;;;;;7.14;60.49;99713.95;1778106;79;20198;-85
2022/03/23 07:33:37;;;;;;;;;;;;;;;7.34;60.68;99715.38;1759172;79;25889;-85
2022/03/23 07:36:04;;;;;;;;;;;;;;;7.50;60.78;99712.60;1768633;79;24706;-85
2022/03/23 07:38:29;;;;;;;;;;;;;;;7.68;60.87;99709.77;1775103;79;20499;-85
2022/03/23 07:40:56;;;;;;;;;;;;;;;7.81;60.87;99711.44;1775231;79;24791;-86
2022/03/23 07:43:22;;;;;;;;;;;;;;;7.96;60.96;99707.78;1777403;79;22930;-85
2022/03/23 07:45:50;;;;;;;;;;;;;;;8.11;60.99;99705.50;1774011;79;26006;-85
2022/03/23 07:48:16;;;;;;;;;;;;;;;8.25;61.02;99709.70;1770352;79;24712;-86
2022/03/23 07:50:42;;;;;;;;;;;;;;;8.34;61.01;99706.33;1777766;79;20872;-85
2022/03/23 07:53:08;;;;;;;;;;;;;;;8.46;61.05;99708.86;1774601;79;24811;-85
2022/03/23 07:55:34;;;;;;;;;;;;;;;8.61;61.05;99708.26;1774062;79;20235;-85
2022/03/23 07:58:00;;;;;;;;;;;;;;;8.80;61.11;99703.09;1730078;79;25930;-86
2022/03/23 08:00:26;;;;;;;;;;;;;;;8.92;61.13;99708.26;1728650;82;20937;-86
2022/03/23 08:02:52;;;;;;;;;;;;;;;9.01;61.16;99700.88;1726786;82;20250;-85
2022/03/23 08:05:24;;;;;;;;;;;;;;;9.13;61.19;99703.41;1728995;82;24897;-85
2022/03/23 08:07:50;;;;;;;;;;;;;;;9.25;61.14;99702.88;1720159;82;21972;-85
2022/03/23 08:10:16;;;;;;;;;;;;;;;9.38;61.09;99697.48;1723294;82;26128;-85
2022/03/23 08:12:54;;;;;;;;;;;;;;;9.50;61.00;99700.86;1732263;82;25381;-86
2022/03/23 08:15:20;;;;;;;;;;;;;;;9.59;60.85;99700.45;1733243;82;20217;-85
2022/03/23 08:17:45;;;;;;;;;;;;;;;9.65;60.68;99692.31;1726609;82;25574;-85
2022/03/23 08:22:58;;;;;;;;;;;;;;;9.89;60.53;99692.95;1730024;82;26035;-86
2022/03/23 08:25:24;;;;;;;;;;;;;;;10.01;60.37;99692.84;1726582;82;24432;-85
2022/03/23 08:27:50;;;;;;;;;;;;;;;10.13;60.24;99692.72;1730022;82;20825;-85
2022/03/23 08:30:16;;;;;;;;;;;;;;;10.25;60.14;99689.09;1732483;81;20877;-85
2022/03/23 08:32:42;;;;;;;;;;;;;;;10.35;59.94;99690.79;1727830;82;20278;-85
2022/03/23 08:35:08;;;;;;;;;;;;;;;10.45;59.83;99683.72;1723766;82;25967;-85
2022/03/23 08:37:34;;;;;;;;;;;;;;;10.59;59.69;99688.25;1732250;82;24482;-85
2022/03/23 08:40:02;;;;;;;;;;;;;;;10.73;59.57;99691.05;1707863;82;20475;-86
2022/03/23 08:42:28;;;;;;;;;;;;;;;10.87;59.45;99693.80;1728241;82;24730;-85
2022/03/23 08:44:56;;;;;;;;;;;;;;;11.02;59.24;99693.47;1725019;82;22269;-84
2022/03/23 08:47:23;;;;;;;;;;;;;;;11.15;58.95;99692.38;1731306;82;26039;-85
2022/03/23 08:49:51;;;;;;;;;;;;;;;11.25;58.67;99691.82;1730978;82;24057;-84
2022/03/23 08:52:17;;;;;;;;;;;;;;;11.37;58.42;99689.02;1727284;82;20221;-84
2022/03/23 08:54:43;;;;;;;;;;;;;;;11.50;58.27;99688.77;1730072;82;20223;-86
2022/03/23 08:57:09;;;;;;;;;;;;;;;11.63;58.08;99688.47;1740086;80;21934;-85
2022/03/23 08:59:35;;;;;;;;;;;;;;;11.73;57.90;99684.91;1781118;79;21288;-86
2022/03/23 09:02:03;;;;;;;;;;;;;;;11.84;57.77;99676.48;1778102;79;20889;-85
2022/03/23 09:04:29;;;;;;;;;;;;;;;11.93;57.54;99674.19;1762732;79;20286;-85
2022/03/23 09:06:55;;;;;;;;;;;;;;;12.05;57.36;99669.58;1769508;81;20252;-86
2022/03/23 09:09:21;;;;;;;;;;;;;;;12.20;57.08;99670.94;1757143;79;20308;-85
2022/03/23 09:11:47;;;;;;;;;;;;;;;12.31;56.73;99668.09;1787697;79;21666;-85
2022/03/23 09:14:13;;;;;;;;;;;;;;;12.46;56.51;99666.35;1778275;79;25106;-85
2022/03/23 09:16:40;;;;;;;;;;;;;;;12.63;56.34;99671.94;1780540;79;20789;-85
2022/03/23 09:19:06;;;;;;;;;;;;;;;12.76;56.01;99672.45;1776135;79;24941;-85
2022/03/23 09:21:33;;;;;;;;;;;;;;;12.88;55.69;99668.23;1778448;79;21938;-85
2022/03/23 09:24:02;;;;;;;;;;;;;;;12.99;55.29;99664.03;1770967;79;25703;-85
2022/03/23 09:26:28;;;;;;;;;;;;;;;13.15;54.96;99667.07;1779051;79;24533;-86
2022/03/23 09:28:54;;;;;;;;;;;;;;;13.24;54.55;99662.12;1769472;79;20220;-85
2022/03/23 09:31:21;;;;;;;;;;;;;;;13.30;54.09;99659.13;1758976;79;24715;-85
2022/03/23 09:33:48;;;;;;;;;;;;;;;13.44;53.71;99654.78;1771314;79;21953;-85
2022/03/23 09:39:00;;;;;;;;;;;;;;;13.62;52.43;99640.48;1780348;79;25117;-85
2022/03/23 09:41:26;;;;;;;;;;;;;;;13.75;51.81;99640.91;1769209;79;20250;-85
2022/03/23 09:43:55;;;;;;;;;;;;;;;13.92;51.43;99641.16;1772213;79;24846;-85
2022/03/23 09:46:21;;;;;;;;;;;;;;;14.07;51.10;99643.29;1774040;79;22034;-84
2022/03/23 09:48:47;;;;;;;;;;;;;;;14.15;50.68;99635.72;1755313;79;20956;-85
2022/03/23 09:51:14;;;;;;;;;;;;;;;14.23;50.13;99638.72;1754420;80;20787;-85
2022/03/23 09:53:41;;;;;;;;;;;;;;;14.35;49.68;99627.81;1776262;79;20176;-86
2022/03/23 09:56:07;;;;;;;;;;;;;;;14.48;49.19;99636.64;1783963;79;24731;-86
2022/03/23 09:58:33;;;;;;;;;;;;;;;14.57;48.82;99630.75;1747048;80;20770;-85
2022/03/23 10:00:59;;;;;;;;;;;;;;;14.64;48.40;99636.83;1734292;82;21046;-86
2022/03/23 10:03:42;;;;;;;;;;;;;;;14.71;47.86;99636.42;1740838;82;24551;-85
2022/03/23 10:06:29;;;;;;;;;;;;;;;14.80;47.31;99629.20;1738553;81;20268;-85
2022/03/23 10:09:00;;;;;;;;;;;;;;;14.91;46.75;99634.58;1728859;82;24820;-86
2022/03/23 10:11:28;;;;;;;;;;;;;;;15.05;46.23;99631.86;1726606;81;21978;-85
2022/03/23 10:14:04;;;;;;;;;;;;;;;15.14;45.75;99625.94;1723446;82;26604;-85
2022/03/23 10:16:49;;;;;;;;;;;;;;;15.23;45.32;99622.66;1718470;81;24521;-85
2022/03/23 10:19:15;;;;;;;;;;;;;;;15.30;44.89;99614.69;1726771;82;20494;-85
2022/03/23 10:21:41;;;;;;;;;;;;;;;15.38;44.33;99616.30;1730163;82;20225;-86
2022/03/23 10:24:09;;;;;;;;;;;;;;;15.48;43.86;99613.40;1729469;82;21812;-86
2022/03/23 10:26:37;;;;;;;;;;;;;;;15.53;43.35;99597.73;1730943;82;26768;-83
2022/03/23 10:29:04;;;;;;;;;;;;;;;15.61;42.95;99598.86;1730323;82;24686;-86
2022/03/23 10:31:31;;;;;;;;;;;;;;;15.71;42.57;99599.06;1729662;82;20148;-86
2022/03/23 10:33:58;;;;;;;;;;;;;;;15.79;42.16;99594.91;1726211;82;25243;-84
2022/03/23 10:36:26;;;;;;;;;;;;;;;15.82;41.76;99591.18;1730588;82;21997;-86
2022/03/23 10:38:53;;;;;;;;;;;;;;;15.89;41.48;99588.47;1727457;82;26044;-86
2022/03/23 10:41:21;;;;;;;;;;;;;;;16.00;41.11;99584.56;1730620;82;24632;-86
2022/03/23 10:43:49;;;;;;;;;;;;;;;16.04;40.63;99579.41;1728071;81;20179;-86
2022/03/23 10:46:17;;;;;;;;;;;;;;;16.10;40.18;99582.08;1728542;82;24741;-86
2022/03/23 10:49:03;;;;;;;;;;;;;;;16.22;39.81;99579.38;1727827;82;21927;-86
2022/03/23 10:51:30;;;;;;;;;;;;;;;16.26;39.43;99576.86;1730669;82;26230;-86
2022/03/23 10:53:57;;;;;;;;;;;;;;;16.33;39.18;99578.09;1729235;82;24487;-87
2022/03/23 10:56:37;;;;;;;;;;;;;;;16.40;38.87;99571.03;1728156;82;20254;-86
2022/03/23 10:59:22;;;;;;;;;;;;;;;16.46;38.38;99569.25;1713386;82;24750;-86
2022/03/23 11:01:57;;;;;;;;;;;;;;;16.52;38.03;99560.86;1718493;82;21973;-85
2022/03/23 11:04:31;;;;;;;;;;;;;;;16.59;37.66;99562.93;1735694;82;25983;-85
2022/03/23 11:06:58;;;;;;;;;;;;;;;16.63;37.19;99554.30;1704593;83;24551;-86
2022/03/23 11:17:57;;;;;;;;;;;;;;;16.76;35.79;99544.45;1774549;79;26877;-85
2022/03/23 11:20:24;;;;;;;;;;;;;;;16.85;35.45;99551.69;1769436;80;24427;-85
2022/03/23 11:22:50;;;;;;;;;;;;;;;16.92;35.21;99544.09;1776786;79;20471;-85
2022/03/23 11:25:16;;;;;;;;;;;;;;;16.98;35.04;99535.69;1770756;80;25534;-85
2022/03/23 11:27:42;;;;;;;;;;;;;;;17.07;34.86;99529.69;1774329;80;20252;-85
2022/03/23 11:30:09;;;;;;;;;;;;;;;17.16;34.62;99527.63;1775198;80;26083;-85
2022/03/23 11:32:38;;;;;;;;;;;;;;;17.23;34.24;99523.55;1780569;80;24484;-85
2022/03/23 11:35:07;;;;;;;;;;;;;;;17.27;34.10;99521.00;1772385;80;20314;-86
2022/03/23 11:37:34;;;;;;;;;;;;;;;17.32;33.79;99520.16;1774471;79;25407;-85
2022/03/23 11:40:00;;;;;;;;;;;;;;;17.33;33.45;99514.38;1766205;79;22627;-85
2022/03/23 11:42:29;;;;;;;;;;;;;;;17.32;33.09;99512.69;1770434;79;25678;-85
2022/03/23 11:44:56;;;;;;;;;;;;;;;17.30;32.71;99510.16;1778342;79;25330;-85
2022/03/23 11:47:25;;;;;;;;;;;;;;;17.26;32.24;99499.47;1776206;79;20148;-85
2022/03/23 11:49:54;;;;;;;;;;;;;;;17.29;31.91;99493.92;1712159;82;20237;-85
2022/03/23 11:52:39;;;;;;;;;;;;;;;17.30;31.43;99494.77;1700730;83;21957;-85
2022/03/23 11:55:40;;;;;;;;;;;;;;;17.31;31.19;99481.90;1695786;83;26342;-86
2022/03/23 11:58:15;;;;;;;;;;;;;;;17.40;30.98;99482.50;1773968;79;24454;-84
2022/03/23 12:00:39;;;;;;;;;;;;;;;17.43;30.76;99487.53;1769294;80;20254;-86
2022/03/23 12:03:07;;;;;;;;;;;;;;;17.48;30.67;99476.92;1782488;80;24739;-86
2022/03/23 12:05:39;;;;;;;;;;;;;;;17.61;30.67;99476.80;1775993;80;22054;-85
2022/03/23 12:08:05;;;;;;;;;;;;;;;17.73;30.66;99477.09;1774554;79;25872;-86
2022/03/23 12:10:32;;;;;;;;;;;;;;;17.84;30.67;99466.45;1767931;80;25254;-86
2022/03/23 12:13:20;;;;;;;;;;;;;;;17.91;30.71;99462.34;1775494;79;20322;-85
2022/03/23 12:15:56;;;;;;;;;;;;;;;17.94;30.52;99466.07;1770876;80;25364;-85
2022/03/23 12:18:46;;;;;;;;;;;;;;;17.98;30.54;99460.86;1784597;79;21983;-86
2022/03/23 12:21:11;;;;;;;;;;;;;;;18.08;30.34;99458.27;1777256;80;25760;-85
2022/03/23 12:23:38;;;;;;;;;;;;;;;18.20;30.26;99451.09;1776633;80;24453;-85
2022/03/23 12:26:06;;;;;;;;;;;;;;;18.29;30.25;99450.31;1774602;80;20221;-86
2022/03/23 12:28:40;;;;;;;;;;;;;;;18.34;30.18;99448.94;1776139;80;24813;-86
2022/03/23 12:31:10;;;;;;;;;;;;;;;18.30;29.86;99448.86;1775402;80;22080;-86
2022/03/23 12:33:58;;;;;;;;;;;;;;;18.26;29.67;99441.30;1751932;80;21014;-86
2022/03/23 12:36:56;;;;;;;;;;;;;;;18.41;29.57;99437.34;1775614;80;24512;-86
2022/03/23 12:38:59;;;;;;;;;;;;;;;18.55;29.33;99433.03;1772606;79;20265;-85
2022/03/23 12:41:31;;;;;;;;;;;;;;;18.62;29.27;99426.23;1771057;80;24856;-85
2022/03/23 12:43:55;;;;;;;;;;;;;;;18.64;29.10;99425.62;1767937;80;22079;-85
2022/03/23 12:46:22;;;;;;;;;;;;;;;18.55;28.86;99417.13;1778888;79;20957;-85
2022/03/23 13:00:09;;;;;;;;;;;;;;;18.84;28.33;99401.31;1776475;80;26268;-86
2022/03/23 13:02:36;;;;;;;;;;;;;;;18.89;28.23;99396.44;1782126;80;24443;-85
2022/03/23 13:05:03;;;;;;;;;;;;;;;18.95;28.08;99396.38;1780402;80;21191;-85
2022/03/23 13:07:31;;;;;;;;;;;;;;;18.99;27.95;99392.48;1783987;79;24928;-85
2022/03/23 13:10:08;;;;;;;;;;;;;;;18.99;27.83;99391.98;1777617;80;21916;-85
2022/03/23 13:12:34;;;;;;;;;;;;;;;19.05;27.73;99382.64;1774162;80;26044;-86
2022/03/23 13:15:02;;;;;;;;;;;;;;;19.14;27.61;99378.70;1780849;80;20855;-85
2022/03/23 13:17:28;;;;;;;;;;;;;;;19.20;27.56;99371.48;1776115;79;20328;-85
2022/03/23 13:19:57;;;;;;;;;;;;;;;19.22;27.46;99375.34;1774301;80;24793;-85
2022/03/23 13:22:33;;;;;;;;;;;;;;;19.24;27.44;99370.73;1777101;80;22050;-85
2022/03/23 13:25:06;;;;;;;;;;;;;;;19.34;27.41;99370.25;1772534;80;26632;-85
2022/03/23 13:27:34;;;;;;;;;;;;;;;19.42;27.33;99362.92;1781175;79;24498;-86
2022/03/23 13:30:00;;;;;;;;;;;;;;;19.54;27.17;99359.99;1766434;80;20201;-85